createdAt,value
2023-05-09T00:00:38.562Z,26.63
2023-05-09T00:01:38.601Z,26.62
2023-05-09T00:02:38.736Z,26.61
2023-05-09T00:03:38.564Z,26.62
2023-05-09T00:04:38.545Z,26.61
2023-05-09T00:05:38.506Z,26.61
2023-05-09T00:06:38.496Z,26.61
2023-05-09T00:07:38.506Z,26.62
2023-05-09T00:08:38.482Z,26.58
2023-05-09T00:09:38.494Z,26.59
2023-05-09T00:10:38.510Z,26.61
2023-05-09T00:11:38.472Z,26.61
2023-05-09T00:12:38.473Z,26.61
2023-05-09T00:13:38.463Z,26.62
2023-05-09T00:14:38.451Z,26.58
2023-05-09T00:15:38.471Z,26.59
2023-05-09T00:16:38.470Z,26.59
2023-05-09T00:17:38.718Z,26.62
2023-05-09T00:18:38.521Z,26.58
2023-05-09T00:19:38.456Z,26.58
2023-05-09T00:20:38.515Z,26.58
2023-05-09T00:21:38.573Z,26.56
2023-05-09T00:22:38.590Z,26.58
2023-05-09T00:23:38.628Z,26.58
2023-05-09T00:24:38.654Z,26.58
2023-05-09T00:25:38.685Z,26.56
2023-05-09T00:26:38.696Z,26.58
2023-05-09T00:27:38.752Z,26.56
2023-05-09T00:28:38.778Z,26.58
2023-05-09T00:29:38.820Z,26.58
2023-05-09T00:30:38.823Z,26.56
2023-05-09T00:31:38.876Z,26.55
2023-05-09T00:32:38.905Z,26.58
2023-05-09T00:33:38.936Z,26.58
2023-05-09T00:34:39.030Z,26.56
2023-05-09T00:35:39.005Z,26.56
2023-05-09T00:36:39.021Z,26.56
2023-05-09T00:37:39.051Z,26.56
2023-05-09T00:38:39.076Z,26.55
2023-05-09T00:39:39.144Z,26.55
2023-05-09T00:40:39.144Z,26.55
2023-05-09T00:41:39.201Z,26.58
2023-05-09T00:42:39.216Z,26.58
2023-05-09T00:43:39.246Z,26.56
2023-05-09T00:44:39.273Z,26.56
2023-05-09T00:45:39.294Z,26.56
2023-05-09T00:46:39.339Z,26.54
2023-05-09T00:47:39.441Z,26.56
2023-05-09T00:48:39.422Z,26.56
2023-05-09T00:49:39.427Z,26.54
2023-05-09T00:50:39.552Z,26.58
2023-05-09T00:51:39.496Z,26.56
2023-05-09T00:52:39.536Z,26.54
2023-05-09T00:53:39.562Z,26.56
2023-05-09T00:54:39.596Z,26.56
2023-05-09T00:55:39.597Z,26.55
2023-05-09T00:56:39.654Z,26.56
2023-05-09T00:57:39.685Z,26.54
2023-05-09T00:58:39.698Z,26.56
2023-05-09T00:59:39.763Z,26.55
2023-05-09T01:00:39.770Z,26.55
2023-05-09T01:01:39.872Z,26.55
2023-05-09T01:02:39.919Z,26.51
2023-05-09T01:03:40.037Z,26.51
2023-05-09T01:04:39.938Z,26.54
2023-05-09T01:05:39.955Z,26.52
2023-05-09T01:06:40.075Z,26.52
2023-05-09T01:07:40.050Z,26.52
2023-05-09T01:08:40.072Z,26.52
2023-05-09T01:09:40.100Z,26.54
2023-05-09T01:10:40.115Z,26.54
2023-05-09T01:11:40.156Z,26.54
2023-05-09T01:12:40.248Z,26.52
2023-05-09T01:13:40.232Z,26.52
2023-05-09T01:14:40.259Z,26.51
2023-05-09T01:15:40.318Z,26.55
2023-05-09T01:16:40.366Z,26.52
2023-05-09T01:17:40.412Z,26.54
2023-05-09T01:18:40.451Z,26.52
2023-05-09T01:19:40.499Z,26.51
2023-05-09T01:20:40.534Z,26.51
2023-05-09T01:21:40.571Z,26.49
2023-05-09T01:22:40.687Z,26.51
2023-05-09T01:23:40.635Z,26.49
2023-05-09T01:24:40.674Z,26.51
2023-05-09T01:25:40.710Z,26.49
2023-05-09T01:26:40.768Z,26.51
2023-05-09T01:27:40.790Z,26.51
2023-05-09T01:28:40.798Z,26.52
2023-05-09T01:29:40.817Z,26.49
2023-05-09T01:30:40.822Z,26.49
2023-05-09T01:31:40.921Z,26.51
2023-05-09T01:32:40.948Z,26.51
2023-05-09T01:33:40.943Z,26.49
2023-05-09T01:34:41.006Z,26.49
2023-05-09T01:35:41.025Z,26.52
2023-05-09T01:36:41.086Z,26.51
2023-05-09T01:37:41.113Z,26.49
2023-05-09T01:38:41.269Z,26.51
2023-05-09T01:39:41.201Z,26.51
2023-05-09T01:40:41.239Z,26.51
2023-05-09T01:41:41.298Z,26.52
2023-05-09T01:42:41.334Z,26.52
2023-05-09T01:43:41.422Z,26.49
2023-05-09T01:44:41.406Z,26.51
2023-05-09T01:45:41.410Z,26.51
2023-05-09T01:46:41.478Z,26.49
2023-05-09T01:47:41.585Z,26.49
2023-05-09T01:48:41.513Z,26.51
2023-05-09T01:49:41.513Z,26.48
2023-05-09T01:50:41.575Z,26.49
2023-05-09T01:51:43.639Z,26.49
2023-05-09T01:52:41.653Z,26.47
2023-05-09T01:53:41.705Z,26.49
2023-05-09T01:54:41.821Z,26.45
2023-05-09T01:55:41.795Z,26.51
2023-05-09T01:56:41.826Z,26.48
2023-05-09T01:57:41.893Z,26.48
2023-05-09T01:58:41.904Z,26.48
2023-05-09T01:59:41.921Z,26.47
2023-05-09T02:00:42.020Z,26.47
2023-05-09T02:01:42.037Z,26.47
2023-05-09T02:02:42.153Z,26.45
2023-05-09T02:03:42.099Z,26.48
2023-05-09T02:04:42.128Z,26.48
2023-05-09T02:05:42.194Z,26.47
2023-05-09T02:06:42.228Z,26.48
2023-05-09T02:07:42.269Z,26.45
2023-05-09T02:08:42.293Z,26.45
2023-05-09T02:09:42.330Z,26.47
2023-05-09T02:10:42.457Z,26.48
2023-05-09T02:11:42.443Z,26.48
2023-05-09T02:12:42.494Z,26.44
2023-05-09T02:13:42.514Z,26.45
2023-05-09T02:14:42.562Z,26.47
2023-05-09T02:15:42.594Z,26.45
2023-05-09T02:16:42.653Z,26.47
2023-05-09T02:17:42.695Z,26.44
2023-05-09T02:18:42.728Z,26.44
2023-05-09T02:19:42.750Z,26.47
2023-05-09T02:20:42.817Z,26.45
2023-05-09T02:21:42.862Z,26.47
2023-05-09T02:22:42.904Z,26.45
2023-05-09T02:23:42.964Z,26.45
2023-05-09T02:24:42.977Z,26.45
2023-05-09T02:25:42.993Z,26.47
2023-05-09T02:26:43.138Z,26.47
2023-05-09T02:27:43.110Z,26.45
2023-05-09T02:28:43.113Z,26.45
2023-05-09T02:29:43.113Z,26.44
2023-05-09T02:30:43.194Z,26.45
2023-05-09T02:31:43.326Z,26.45
2023-05-09T02:32:43.291Z,26.42
2023-05-09T02:33:43.301Z,26.44
2023-05-09T02:34:43.302Z,26.45
2023-05-09T02:35:43.335Z,26.45
2023-05-09T02:36:43.406Z,26.42
2023-05-09T02:37:43.438Z,26.45
2023-05-09T02:38:43.459Z,26.45
2023-05-09T02:39:43.474Z,26.44
2023-05-09T02:40:43.489Z,26.45
2023-05-09T02:41:43.509Z,26.44
2023-05-09T02:42:43.663Z,26.45
2023-05-09T02:43:43.634Z,26.41
2023-05-09T02:44:43.639Z,26.41
2023-05-09T02:45:43.740Z,26.44
2023-05-09T02:46:43.727Z,26.42
2023-05-09T02:47:43.830Z,26.41
2023-05-09T02:48:43.822Z,26.44
2023-05-09T02:49:43.881Z,26.44
2023-05-09T02:50:43.905Z,26.44
2023-05-09T02:51:43.987Z,26.44
2023-05-09T02:52:43.996Z,26.42
2023-05-09T02:53:44.021Z,26.42
2023-05-09T02:54:44.076Z,26.41
2023-05-09T02:55:44.101Z,26.42
2023-05-09T02:56:44.137Z,26.41
2023-05-09T02:57:44.179Z,26.41
2023-05-09T02:58:44.321Z,26.44
2023-05-09T02:59:44.297Z,26.42
2023-05-09T03:00:44.329Z,26.42
2023-05-09T03:01:44.394Z,26.40
2023-05-09T03:02:44.504Z,26.42
2023-05-09T03:03:44.527Z,26.42
2023-05-09T03:04:44.483Z,26.42
2023-05-09T03:05:44.559Z,26.41
2023-05-09T03:06:44.574Z,26.44
2023-05-09T03:07:44.604Z,26.45
2023-05-09T03:08:44.654Z,26.45
2023-05-09T03:09:44.696Z,26.42
2023-05-09T03:10:44.731Z,26.42
2023-05-09T03:11:44.787Z,26.40
2023-05-09T03:12:44.880Z,26.41
2023-05-09T03:13:44.875Z,26.42
2023-05-09T03:14:44.996Z,26.41
2023-05-09T03:15:45.032Z,26.41
2023-05-09T03:16:45.009Z,26.41
2023-05-09T03:17:45.060Z,26.40
2023-05-09T03:18:45.064Z,26.40
2023-05-09T03:19:45.106Z,26.42
2023-05-09T03:20:45.144Z,26.41
2023-05-09T03:21:45.193Z,26.42
2023-05-09T03:22:45.229Z,26.42
2023-05-09T03:23:45.247Z,26.41
2023-05-09T03:24:45.265Z,26.41
2023-05-09T03:25:45.313Z,26.42
2023-05-09T03:26:45.362Z,26.42
2023-05-09T03:27:45.405Z,26.40
2023-05-09T03:28:45.401Z,26.42
2023-05-09T03:29:45.452Z,26.41
2023-05-09T03:30:45.587Z,26.38
2023-05-09T03:31:45.594Z,26.40
2023-05-09T03:32:45.696Z,26.37
2023-05-09T03:33:45.648Z,26.41
2023-05-09T03:34:45.694Z,26.38
2023-05-09T03:35:45.726Z,26.38
2023-05-09T03:36:45.780Z,26.42
2023-05-09T03:37:45.807Z,26.40
2023-05-09T03:38:45.999Z,26.44
2023-05-09T03:39:45.915Z,26.38
2023-05-09T03:40:45.917Z,26.37
2023-05-09T03:41:45.963Z,26.38
2023-05-09T03:42:46.006Z,26.38
2023-05-09T03:43:46.023Z,26.41
2023-05-09T03:44:46.080Z,26.38
2023-05-09T03:45:46.122Z,26.40
2023-05-09T03:46:46.243Z,26.38
2023-05-09T03:47:46.284Z,26.41
2023-05-09T03:48:46.215Z,26.37
2023-05-09T03:49:46.228Z,26.40
2023-05-09T03:50:46.267Z,26.41
2023-05-09T03:51:46.324Z,26.38
2023-05-09T03:52:46.390Z,26.40
2023-05-09T03:53:46.401Z,26.38
2023-05-09T03:54:46.392Z,26.40
2023-05-09T03:55:46.443Z,26.38
2023-05-09T03:56:46.468Z,26.41
2023-05-09T03:57:46.485Z,26.41
2023-05-09T03:58:46.534Z,26.40
2023-05-09T03:59:46.571Z,26.40
2023-05-09T04:00:46.592Z,26.41
2023-05-09T04:01:46.668Z,26.38
2023-05-09T04:02:46.795Z,26.38
2023-05-09T04:03:46.839Z,26.40
2023-05-09T04:04:46.763Z,26.38
2023-05-09T04:05:46.790Z,26.41
2023-05-09T04:06:46.867Z,26.40
2023-05-09T04:07:46.865Z,26.40
2023-05-09T04:08:46.935Z,26.37
2023-05-09T04:09:46.958Z,26.40
2023-05-09T04:10:46.996Z,26.37
2023-05-09T04:11:47.063Z,26.38
2023-05-09T04:12:47.121Z,26.37
2023-05-09T04:13:47.150Z,26.38
2023-05-09T04:14:49.002Z,26.40
2023-05-09T04:15:47.232Z,26.38
2023-05-09T04:16:47.481Z,26.38
2023-05-09T04:17:47.342Z,26.37
2023-05-09T04:18:47.426Z,26.37
2023-05-09T04:19:47.346Z,26.38
2023-05-09T04:20:47.368Z,26.38
2023-05-09T04:21:47.402Z,26.38
2023-05-09T04:22:47.438Z,26.37
2023-05-09T04:23:47.486Z,26.38
2023-05-09T04:24:47.559Z,26.37
2023-05-09T04:25:47.564Z,26.38
2023-05-09T04:26:47.594Z,26.38
2023-05-09T04:27:47.614Z,26.37
2023-05-09T04:28:47.643Z,26.35
2023-05-09T04:29:47.673Z,26.38
2023-05-09T04:30:47.767Z,26.38
2023-05-09T04:31:47.974Z,26.37
2023-05-09T04:32:47.775Z,26.40
2023-05-09T04:33:47.813Z,26.38
2023-05-09T04:34:47.930Z,26.37
2023-05-09T04:35:47.879Z,26.37
2023-05-09T04:36:47.914Z,26.37
2023-05-09T04:37:47.966Z,26.37
2023-05-09T04:38:48.016Z,26.38
2023-05-09T04:39:48.059Z,26.37
2023-05-09T04:40:48.094Z,26.37
2023-05-09T04:41:48.180Z,26.37
2023-05-09T04:42:48.193Z,26.37
2023-05-09T04:43:48.252Z,26.34
2023-05-09T04:44:48.271Z,26.35
2023-05-09T04:45:48.326Z,26.35
2023-05-09T04:46:48.321Z,26.37
2023-05-09T04:47:48.386Z,26.35
2023-05-09T04:48:48.368Z,26.35
2023-05-09T04:49:48.405Z,26.38
2023-05-09T04:50:48.565Z,26.35
2023-05-09T04:51:48.447Z,26.35
2023-05-09T04:52:48.483Z,26.38
2023-05-09T04:53:48.520Z,26.35
2023-05-09T04:54:48.617Z,26.37
2023-05-09T04:55:48.620Z,26.38
2023-05-09T04:56:50.633Z,26.35
2023-05-09T04:57:48.695Z,26.37
2023-05-09T04:58:48.751Z,26.37
2023-05-09T04:59:48.812Z,26.35
2023-05-09T05:00:48.806Z,26.37
2023-05-09T05:01:48.895Z,26.35
2023-05-09T05:02:48.933Z,26.38
2023-05-09T05:03:48.904Z,26.37
2023-05-09T05:04:48.973Z,26.37
2023-05-09T05:05:48.988Z,26.37
2023-05-09T05:06:49.081Z,26.34
2023-05-09T05:07:49.036Z,26.35
2023-05-09T05:08:49.103Z,26.38
2023-05-09T05:09:49.123Z,26.37
2023-05-09T05:10:49.193Z,26.37
2023-05-09T05:11:59.532Z,26.35
2023-05-09T05:12:50.186Z,26.37
2023-05-09T05:13:49.185Z,26.34
2023-05-09T05:14:49.183Z,26.37
2023-05-09T05:15:49.188Z,26.38
2023-05-09T05:16:49.136Z,26.37
2023-05-09T05:17:49.307Z,26.38
2023-05-09T05:18:49.131Z,26.38
2023-05-09T05:19:49.131Z,26.37
2023-05-09T05:20:49.109Z,26.35
2023-05-09T05:21:49.104Z,26.38
2023-05-09T05:22:49.201Z,26.37
2023-05-09T05:23:49.150Z,26.35
2023-05-09T05:24:49.195Z,26.38
2023-05-09T05:25:49.245Z,26.38
2023-05-09T05:26:49.314Z,26.42
2023-05-09T05:27:49.304Z,26.41
2023-05-09T05:28:49.925Z,26.40
2023-05-09T05:29:49.386Z,26.41
2023-05-09T05:30:49.428Z,26.42
2023-05-09T05:31:49.546Z,26.40
2023-05-09T05:32:49.582Z,26.42
2023-05-09T05:33:49.584Z,26.45
2023-05-09T05:34:49.692Z,26.51
2023-05-09T05:35:49.690Z,26.52
2023-05-09T05:36:49.682Z,26.56
2023-05-09T05:37:50.031Z,26.59
2023-05-09T05:38:49.864Z,26.62
2023-05-09T05:39:49.777Z,26.63
2023-05-09T05:40:49.826Z,26.72
2023-05-09T05:41:49.898Z,26.78
2023-05-09T05:42:49.956Z,26.82
2023-05-09T05:43:50.726Z,26.88
2023-05-09T05:44:50.027Z,26.93
2023-05-09T05:45:50.316Z,26.99
2023-05-09T05:46:50.097Z,27.03
2023-05-09T05:47:50.218Z,27.07
2023-05-09T05:48:50.139Z,27.13
2023-05-09T05:49:50.189Z,27.19
2023-05-09T05:50:50.234Z,27.22
2023-05-09T05:51:50.296Z,27.27
2023-05-09T05:52:50.275Z,27.29
2023-05-09T05:53:50.332Z,27.32
2023-05-09T05:54:50.377Z,27.34
2023-05-09T05:55:50.308Z,27.36
2023-05-09T05:56:50.331Z,27.36
2023-05-09T05:57:50.324Z,27.34
2023-05-09T05:58:50.348Z,27.34
2023-05-09T05:59:50.428Z,27.40
2023-05-09T06:00:50.423Z,27.43
2023-05-09T06:01:50.467Z,27.47
2023-05-09T06:02:50.534Z,27.47
2023-05-09T06:03:50.606Z,27.51
2023-05-09T06:04:50.645Z,27.51
2023-05-09T06:05:50.552Z,27.56
2023-05-09T06:06:50.574Z,27.60
2023-05-09T06:07:50.607Z,27.56
2023-05-09T06:08:50.648Z,27.61
2023-05-09T06:09:50.676Z,27.58
2023-05-09T06:10:50.812Z,27.57
2023-05-09T06:11:50.779Z,27.61
2023-05-09T06:12:51.032Z,27.53
2023-05-09T06:13:51.021Z,27.56
2023-05-09T06:14:50.875Z,27.57
2023-05-09T06:15:50.871Z,27.58
2023-05-09T06:16:51.002Z,27.57
2023-05-09T06:17:51.016Z,27.60
2023-05-09T06:18:52.064Z,27.60
2023-05-09T06:19:51.041Z,27.60
2023-05-09T06:20:51.077Z,27.57
2023-05-09T06:21:51.118Z,27.58
2023-05-09T06:22:51.302Z,27.61
2023-05-09T06:24:07.817Z,27.60
2023-05-09T06:24:52.168Z,27.58
2023-05-09T06:25:51.145Z,27.67
2023-05-09T06:26:51.218Z,27.60
2023-05-09T06:27:51.147Z,27.67
2023-05-09T06:28:51.318Z,27.58
2023-05-09T06:29:51.128Z,27.67
2023-05-09T06:30:51.134Z,27.71
2023-05-09T06:31:51.177Z,27.75
2023-05-09T06:32:51.145Z,27.80
2023-05-09T06:33:51.553Z,27.83
2023-05-09T06:34:51.118Z,27.84
2023-05-09T06:35:51.095Z,27.81
2023-05-09T06:36:51.095Z,27.85
2023-05-09T06:37:51.091Z,27.85
2023-05-09T06:38:51.538Z,27.80
2023-05-09T06:39:51.123Z,27.75
2023-05-09T06:40:51.165Z,27.71
2023-05-09T06:41:51.196Z,27.61
2023-05-09T06:42:51.300Z,27.54
2023-05-09T06:43:51.315Z,27.47
2023-05-09T06:44:51.306Z,27.39
2023-05-09T06:45:51.429Z,27.34
2023-05-09T06:46:51.381Z,27.27
2023-05-09T06:47:51.465Z,27.26
2023-05-09T06:48:51.478Z,27.22
2023-05-09T06:49:51.531Z,27.20
2023-05-09T06:50:51.601Z,27.14
2023-05-09T06:51:51.630Z,27.10
2023-05-09T06:52:51.679Z,27.09
2023-05-09T06:53:52.087Z,27.07
2023-05-09T06:54:51.748Z,27.06
2023-05-09T06:55:51.811Z,27.07
2023-05-09T06:56:51.949Z,27.06
2023-05-09T06:57:51.992Z,27.05
2023-05-09T06:58:52.167Z,27.06
2023-05-09T06:59:51.950Z,27.07
2023-05-09T07:00:52.111Z,27.07
2023-05-09T07:01:52.096Z,27.07
2023-05-09T07:02:52.028Z,27.05
2023-05-09T07:03:52.147Z,27.07
2023-05-09T07:04:52.115Z,27.10
2023-05-09T07:05:52.066Z,27.11
2023-05-09T07:06:52.049Z,27.17
2023-05-09T07:07:52.104Z,27.19
2023-05-09T07:08:52.551Z,27.20
2023-05-09T07:09:55.197Z,27.22
2023-05-09T07:10:53.178Z,27.29
2023-05-09T07:11:52.175Z,27.27
2023-05-09T07:12:52.171Z,27.27
2023-05-09T07:13:52.587Z,27.29
2023-05-09T07:14:52.220Z,27.36
2023-05-09T07:15:52.150Z,27.34
2023-05-09T07:16:52.190Z,27.37
2023-05-09T07:17:52.147Z,27.39
2023-05-09T07:18:52.583Z,27.40
2023-05-09T07:19:52.131Z,27.44
2023-05-09T07:20:52.146Z,27.47
2023-05-09T07:21:52.077Z,27.46
2023-05-09T07:22:52.204Z,27.46
2023-05-09T07:23:52.579Z,27.46
2023-05-09T07:24:52.183Z,27.47
2023-05-09T07:25:52.235Z,27.50
2023-05-09T07:26:52.237Z,27.47
2023-05-09T07:27:52.294Z,27.47
2023-05-09T07:28:52.577Z,27.43
2023-05-09T07:29:52.324Z,27.41
2023-05-09T07:30:52.450Z,27.46
2023-05-09T07:31:52.394Z,27.41
2023-05-09T07:32:52.573Z,27.41
2023-05-09T07:33:52.550Z,27.34
2023-05-09T07:34:52.558Z,27.29
2023-05-09T07:35:52.574Z,27.25
2023-05-09T07:36:52.588Z,27.17
2023-05-09T07:37:52.626Z,27.03
2023-05-09T07:38:52.718Z,26.96
2023-05-09T07:39:53.078Z,26.89
2023-05-09T07:40:52.700Z,26.82
2023-05-09T07:41:52.692Z,26.75
2023-05-09T07:42:52.824Z,26.65
2023-05-09T07:43:52.738Z,26.58
2023-05-09T07:44:52.746Z,26.51
2023-05-09T07:45:52.799Z,26.42
2023-05-09T07:46:52.866Z,26.32
2023-05-09T07:47:52.964Z,26.26
2023-05-09T07:48:52.893Z,26.19
2023-05-09T07:49:52.938Z,26.11
2023-05-09T07:50:52.953Z,26.04
2023-05-09T07:51:52.975Z,26.01
2023-05-09T07:52:53.045Z,25.99
2023-05-09T07:53:53.066Z,25.96
2023-05-09T07:54:53.108Z,25.93
2023-05-09T07:55:53.118Z,25.91
2023-05-09T07:56:53.177Z,25.90
2023-05-09T07:57:53.163Z,25.89
2023-05-09T07:58:55.044Z,25.87
2023-05-09T07:59:53.592Z,25.84
2023-05-09T08:00:53.325Z,25.84
2023-05-09T08:01:53.326Z,25.87
2023-05-09T08:02:53.548Z,25.86
2023-05-09T08:03:53.532Z,25.89
2023-05-09T08:04:53.444Z,25.86
2023-05-09T08:05:53.456Z,25.90
2023-05-09T08:06:53.492Z,25.94
2023-05-09T08:07:53.567Z,25.99
2023-05-09T08:08:53.595Z,25.99
2023-05-09T08:09:53.681Z,26.03
2023-05-09T08:10:53.665Z,26.04
2023-05-09T08:11:53.729Z,26.03
2023-05-09T08:12:53.786Z,26.10
2023-05-09T08:13:53.816Z,26.14
2023-05-09T08:14:53.828Z,26.16
2023-05-09T08:15:53.940Z,26.23
2023-05-09T08:16:53.908Z,26.24
2023-05-09T08:17:53.973Z,26.27
2023-05-09T08:18:54.158Z,26.30
2023-05-09T08:19:53.992Z,26.31
2023-05-09T08:20:54.029Z,26.38
2023-05-09T08:21:54.120Z,26.37
2023-05-09T08:22:54.104Z,26.41
2023-05-09T08:23:54.570Z,26.48
2023-05-09T08:24:54.176Z,26.55
2023-05-09T08:25:54.201Z,26.58
2023-05-09T08:26:54.285Z,26.67
2023-05-09T08:27:54.279Z,26.74
2023-05-09T08:28:54.282Z,26.82
2023-05-09T08:29:54.309Z,26.88
2023-05-09T08:30:54.326Z,26.96
2023-05-09T08:31:54.446Z,27.02
2023-05-09T08:32:54.446Z,27.07
2023-05-09T08:33:54.459Z,27.13
2023-05-09T08:34:54.559Z,27.17
2023-05-09T08:35:54.526Z,27.19
2023-05-09T08:36:54.561Z,27.17
2023-05-09T08:37:54.587Z,27.11
2023-05-09T08:38:54.605Z,27.23
2023-05-09T08:39:55.111Z,27.33
2023-05-09T08:40:54.692Z,27.39
2023-05-09T08:41:54.721Z,27.49
2023-05-09T08:42:54.725Z,27.49
2023-05-09T08:43:55.137Z,27.50
2023-05-09T08:44:54.745Z,27.50
2023-05-09T08:45:54.771Z,27.49
2023-05-09T08:46:54.880Z,27.58
2023-05-09T08:47:54.914Z,27.47
2023-05-09T08:48:55.125Z,27.54
2023-05-09T08:49:54.901Z,27.60
2023-05-09T08:50:55.029Z,27.61
2023-05-09T08:51:55.004Z,27.65
2023-05-09T08:52:55.039Z,27.64
2023-05-09T08:53:55.108Z,27.61
2023-05-09T08:54:55.223Z,27.64
2023-05-09T08:55:55.099Z,27.70
2023-05-09T08:56:55.270Z,27.71
2023-05-09T08:57:55.170Z,27.81
2023-05-09T08:58:55.212Z,27.72
2023-05-09T08:59:55.244Z,27.72
2023-05-09T09:00:55.296Z,27.87
2023-05-09T09:01:55.333Z,27.89
2023-05-09T09:02:55.375Z,27.77
2023-05-09T09:03:55.359Z,27.71
2023-05-09T09:04:55.396Z,27.65
2023-05-09T09:05:55.383Z,27.68
2023-05-09T09:06:55.475Z,27.70
2023-05-09T09:07:55.418Z,27.81
2023-05-09T09:08:55.458Z,27.85
2023-05-09T09:09:55.622Z,27.85
2023-05-09T09:10:55.637Z,27.77
2023-05-09T09:11:55.621Z,27.97
2023-05-09T09:12:55.592Z,27.91
2023-05-09T09:13:56.101Z,27.92
2023-05-09T09:14:55.664Z,27.99
2023-05-09T09:15:55.683Z,28.01
2023-05-09T09:16:55.881Z,27.91
2023-05-09T09:17:55.761Z,27.95
2023-05-09T09:18:56.806Z,27.92
2023-05-09T09:19:55.729Z,27.92
2023-05-09T09:20:55.736Z,27.89
2023-05-09T09:21:55.723Z,27.87
2023-05-09T09:22:55.793Z,27.89
2023-05-09T09:23:56.146Z,27.94
2023-05-09T09:24:55.703Z,27.87
2023-05-09T09:25:56.873Z,27.94
2023-05-09T09:26:55.689Z,28.04
2023-05-09T09:27:55.685Z,28.11
2023-05-09T09:28:56.127Z,28.15
2023-05-09T09:29:55.658Z,28.05
2023-05-09T09:30:55.694Z,28.15
2023-05-09T09:31:55.692Z,28.20
2023-05-09T09:32:55.702Z,28.25
2023-05-09T09:33:56.104Z,28.26
2023-05-09T09:34:56.137Z,28.28
2023-05-09T09:35:55.615Z,28.29
2023-05-09T09:36:55.625Z,28.29
2023-05-09T09:37:55.926Z,28.30
2023-05-09T09:38:55.729Z,28.26
2023-05-09T09:39:55.602Z,28.25
2023-05-09T09:40:55.630Z,28.25
2023-05-09T09:41:55.562Z,28.22
2023-05-09T09:42:55.559Z,28.13
2023-05-09T09:43:57.495Z,28.13
2023-05-09T09:44:55.619Z,28.11
2023-05-09T09:45:55.571Z,28.12
2023-05-09T09:46:55.553Z,28.09
2023-05-09T09:47:55.676Z,28.08
2023-05-09T09:48:55.515Z,28.08
2023-05-09T09:49:55.621Z,28.09
2023-05-09T09:50:55.520Z,28.11
2023-05-09T09:51:55.531Z,28.12
2023-05-09T09:52:55.510Z,28.13
2023-05-09T09:53:55.476Z,28.12
2023-05-09T09:54:55.712Z,28.09
2023-05-09T09:55:55.517Z,28.11
2023-05-09T09:56:55.486Z,28.11
2023-05-09T09:57:55.446Z,28.12
2023-05-09T09:58:55.449Z,28.12
2023-05-09T09:59:55.440Z,28.13
2023-05-09T10:00:55.476Z,28.12
2023-05-09T10:01:55.438Z,28.13
2023-05-09T10:02:55.436Z,28.12
2023-05-09T10:03:55.461Z,28.12
2023-05-09T10:04:55.443Z,28.12
2023-05-09T10:05:55.412Z,28.15
2023-05-09T10:06:55.397Z,28.18
2023-05-09T10:07:55.373Z,28.11
2023-05-09T10:08:55.390Z,28.09
2023-05-09T10:09:55.364Z,28.11
2023-05-09T10:10:55.495Z,28.09
2023-05-09T10:11:55.348Z,28.09
2023-05-09T10:12:55.373Z,28.09
2023-05-09T10:13:55.339Z,28.09
2023-05-09T10:14:55.624Z,28.11
2023-05-09T10:15:55.429Z,28.04
2023-05-09T10:16:55.409Z,28.07
2023-05-09T10:17:55.453Z,28.02
2023-05-09T10:18:55.355Z,27.99
2023-05-09T10:19:55.639Z,27.98
2023-05-09T10:20:55.290Z,27.97
2023-05-09T10:21:55.290Z,27.92
2023-05-09T10:22:55.291Z,27.88
2023-05-09T10:23:55.290Z,27.89
2023-05-09T10:24:57.007Z,27.89
2023-05-09T10:25:55.358Z,27.85
2023-05-09T10:26:55.467Z,27.81
2023-05-09T10:27:55.421Z,27.84
2023-05-09T10:28:55.460Z,27.84
2023-05-09T10:29:55.525Z,27.77
2023-05-09T10:30:55.604Z,27.80
2023-05-09T10:31:55.611Z,27.77
2023-05-09T10:32:55.654Z,27.81
2023-05-09T10:33:55.633Z,27.84
2023-05-09T10:34:56.134Z,27.84
2023-05-09T10:35:55.691Z,27.83
2023-05-09T10:36:55.696Z,27.77
2023-05-09T10:37:55.780Z,27.87
2023-05-09T10:38:55.777Z,27.94
2023-05-09T10:39:55.777Z,27.92
2023-05-09T10:40:55.811Z,27.94
2023-05-09T10:41:55.858Z,27.97
2023-05-09T10:42:55.984Z,27.94
2023-05-09T10:43:55.922Z,27.97
2023-05-09T10:44:56.140Z,27.98
2023-05-09T10:45:56.012Z,27.95
2023-05-09T10:46:56.068Z,28.04
2023-05-09T10:47:56.138Z,28.05
2023-05-09T10:48:56.130Z,27.99
2023-05-09T10:49:56.666Z,27.98
2023-05-09T10:50:56.216Z,27.99
2023-05-09T10:51:56.251Z,27.95
2023-05-09T10:52:56.308Z,28.05
2023-05-09T10:53:56.357Z,28.01
2023-05-09T10:54:56.638Z,27.99
2023-05-09T10:55:56.451Z,27.99
2023-05-09T10:56:56.487Z,28.01
2023-05-09T10:57:56.526Z,28.01
2023-05-09T10:58:56.620Z,28.04
2023-05-09T10:59:56.669Z,28.01
2023-05-09T11:00:57.411Z,27.99
2023-05-09T11:01:56.645Z,28.04
2023-05-09T11:02:56.790Z,28.05
2023-05-09T11:03:56.680Z,28.09
2023-05-09T11:04:56.662Z,28.02
2023-05-09T11:05:56.710Z,27.99
2023-05-09T11:06:57.776Z,28.05
2023-05-09T11:07:56.794Z,28.09
2023-05-09T11:08:56.809Z,28.19
2023-05-09T11:09:56.841Z,28.23
2023-05-09T11:10:56.915Z,28.26
2023-05-09T11:11:56.943Z,28.29
2023-05-09T11:12:58.038Z,28.29
2023-05-09T11:13:57.010Z,28.32
2023-05-09T11:14:57.254Z,28.39
2023-05-09T11:15:57.108Z,28.43
2023-05-09T11:16:57.122Z,28.50
2023-05-09T11:17:57.209Z,28.50
2023-05-09T11:18:57.214Z,28.50
2023-05-09T11:19:57.657Z,28.50
2023-05-09T11:20:57.250Z,28.53
2023-05-09T11:21:57.271Z,28.50
2023-05-09T11:22:57.273Z,28.48
2023-05-09T11:23:57.318Z,28.48
2023-05-09T11:24:57.345Z,28.46
2023-05-09T11:25:57.366Z,28.42
2023-05-09T11:26:57.385Z,28.39
2023-05-09T11:27:57.419Z,28.38
2023-05-09T11:28:57.440Z,28.34
2023-05-09T11:29:57.499Z,28.34
2023-05-09T11:30:57.622Z,28.30
2023-05-09T11:31:57.583Z,28.29
2023-05-09T11:32:57.621Z,28.25
2023-05-09T11:33:57.633Z,28.19
2023-05-09T11:34:57.669Z,28.12
2023-05-09T11:35:57.687Z,28.07
2023-05-09T11:36:57.740Z,28.04
2023-05-09T11:37:57.784Z,28.01
2023-05-09T11:38:57.828Z,27.94
2023-05-09T11:39:57.879Z,27.89
2023-05-09T11:40:57.910Z,27.84
2023-05-09T11:41:57.958Z,27.84
2023-05-09T11:42:58.833Z,27.84
2023-05-09T11:43:58.001Z,27.81
2023-05-09T11:44:58.069Z,27.83
2023-05-09T11:45:58.032Z,27.83
2023-05-09T11:46:58.289Z,27.83
2023-05-09T11:47:58.089Z,27.85
2023-05-09T11:48:58.171Z,27.87
2023-05-09T11:49:58.160Z,27.87
2023-05-09T11:50:58.202Z,27.88
2023-05-09T11:51:58.233Z,27.91
2023-05-09T11:52:58.276Z,27.89
2023-05-09T11:53:58.301Z,27.95
2023-05-09T11:54:58.361Z,27.95
2023-05-09T11:55:58.401Z,27.95
2023-05-09T11:56:58.477Z,27.98
2023-05-09T11:57:58.463Z,28.01
2023-05-09T11:58:58.485Z,27.99
2023-05-09T11:59:58.533Z,28.02
2023-05-09T12:00:58.566Z,28.04
2023-05-09T12:01:58.582Z,28.04
2023-05-09T12:02:58.823Z,28.07
2023-05-09T12:03:58.683Z,28.07
2023-05-09T12:04:58.688Z,28.11
2023-05-09T12:05:58.681Z,28.07
2023-05-09T12:06:58.713Z,28.11
2023-05-09T12:07:58.741Z,28.12
2023-05-09T12:08:58.752Z,28.16
2023-05-09T12:09:58.792Z,28.19
2023-05-09T12:10:58.775Z,28.22
2023-05-09T12:11:58.828Z,28.25
2023-05-09T12:12:58.897Z,28.28
2023-05-09T12:13:58.908Z,28.28
2023-05-09T12:14:58.959Z,28.34
2023-05-09T12:15:59.033Z,28.34
2023-05-09T12:16:59.012Z,28.38
2023-05-09T12:17:59.105Z,28.30
2023-05-09T12:18:59.177Z,28.32
2023-05-09T12:19:59.124Z,28.35
2023-05-09T12:20:59.118Z,28.36
2023-05-09T12:21:59.165Z,28.29
2023-05-09T12:22:59.213Z,28.35
2023-05-09T12:23:59.233Z,28.35
2023-05-09T12:24:59.259Z,28.35
2023-05-09T12:25:59.271Z,28.43
2023-05-09T12:26:59.295Z,28.45
2023-05-09T12:27:59.309Z,28.42
2023-05-09T12:28:59.332Z,28.48
2023-05-09T12:29:59.364Z,28.50
2023-05-09T12:30:59.397Z,28.53
2023-05-09T12:31:59.369Z,28.58
2023-05-09T12:32:59.403Z,28.52
2023-05-09T12:33:59.413Z,28.50
2023-05-09T12:34:59.518Z,28.50
2023-05-09T12:35:59.440Z,28.52
2023-05-09T12:36:59.459Z,28.55
2023-05-09T12:37:59.468Z,28.56
2023-05-09T12:38:59.472Z,28.52
2023-05-09T12:39:59.500Z,28.52
2023-05-09T12:41:01.004Z,28.53
2023-05-09T12:42:01.964Z,28.49
2023-05-09T12:42:59.510Z,28.50
2023-05-09T12:43:59.495Z,28.55
2023-05-09T12:44:59.490Z,28.52
2023-05-09T12:45:59.475Z,28.45
2023-05-09T12:46:59.497Z,28.48
2023-05-09T12:47:59.489Z,28.45
2023-05-09T12:48:59.478Z,28.48
2023-05-09T12:49:59.461Z,28.52
2023-05-09T12:50:59.520Z,28.50
2023-05-09T12:51:59.837Z,28.50
2023-05-09T12:53:03.095Z,28.59